Arguello, Argentina
Current Conditions -  °F | °C
As of 10:00 PM on Wednesday 22 Oct 2014 (Local Time) from SACO Reporting Station
Clear Clear  
Wind Chill: 70°   Ceiling: Unl
Heat Index: 70°   Visibility: 6mi
Dew Point: 52°   Wind: 9mph
Humidity: 53%   Direction: 360°N
Pressure: 30.03"   Gusts: NA
Location:  31.36°S, 64.25°W
Report Text: SACO 230100Z 36008KT CAVOK 21/11 Q1017
Loading
Personal Weather Stations






























Interactive Weather Map
Tropical Storm Tracking
New forecast layout! Learn more

10-Day Weather Forecast

Advertisements
Track Severe Weather on mobile